createdAt,value
2022-08-25T00:00:31.485Z,100868.31
2022-08-25T00:03:02.072Z,100873.19
2022-08-25T00:05:33.635Z,100870.75
2022-08-25T00:08:03.700Z,100871.56
2022-08-25T00:10:35.911Z,100872.75
2022-08-25T00:13:06.983Z,100866.66
2022-08-25T00:15:36.210Z,100860.97
2022-08-25T00:18:14.776Z,100863.41
2022-08-25T00:20:48.987Z,100864.22
2022-08-25T00:23:20.265Z,100862.59
2022-08-25T00:25:51.350Z,100867.06
2022-08-25T00:28:22.199Z,100869.94
2022-08-25T00:30:50.414Z,100869.16
2022-08-25T00:33:18.653Z,100866.34
2022-08-25T00:35:47.712Z,100876.44
2022-08-25T00:38:17.817Z,100871.16
2022-08-25T00:40:46.377Z,100874.00
2022-08-25T00:43:13.938Z,100861.81
2022-08-25T00:45:44.484Z,100860.63
2022-08-25T00:48:13.508Z,100854.91
2022-08-25T00:50:40.941Z,100845.56
2022-08-25T00:53:12.591Z,100845.19
2022-08-25T00:55:44.224Z,100844.34
2022-08-25T00:58:20.227Z,100849.22
2022-08-25T01:00:54.190Z,100846.00
2022-08-25T01:03:35.918Z,100845.59
2022-08-25T01:06:09.324Z,100840.75
2022-08-25T01:08:37.013Z,100844.34
2022-08-25T01:11:10.416Z,100858.13
2022-08-25T01:13:45.559Z,100845.19
2022-08-25T01:16:15.224Z,100851.59
2022-08-25T01:18:57.756Z,100846.28
2022-08-25T01:21:28.176Z,100844.25
2022-08-25T01:23:58.461Z,100842.59
2022-08-25T01:26:34.684Z,100845.44
2022-08-25T01:29:22.320Z,100852.31
2022-08-25T01:31:52.942Z,100845.38
2022-08-25T01:34:25.936Z,100843.34
2022-08-25T01:36:54.385Z,100853.94
2022-08-25T01:39:28.799Z,100843.28
2022-08-25T01:42:11.583Z,100847.38
2022-08-25T01:44:42.700Z,100841.31
2022-08-25T01:47:14.022Z,100840.13
2022-08-25T01:49:47.683Z,100840.13
2022-08-25T01:52:27.862Z,100845.78
2022-08-25T01:55:01.080Z,100833.53
2022-08-25T01:57:30.208Z,100838.41
2022-08-25T02:00:00.207Z,100836.41
2022-08-25T02:02:31.778Z,100837.66
2022-08-25T02:05:03.626Z,100843.78
2022-08-25T02:07:36.251Z,100845.78
2022-08-25T02:10:10.573Z,100835.56
2022-08-25T02:12:38.813Z,100829.50
2022-08-25T02:15:08.105Z,100837.59
2022-08-25T02:17:39.475Z,100831.97
2022-08-25T02:20:10.311Z,100826.28
2022-08-25T02:22:40.622Z,100834.00
2022-08-25T02:25:12.866Z,100839.69
2022-08-25T02:27:44.415Z,100838.91
2022-08-25T02:30:15.422Z,100840.94
2022-08-25T02:32:45.922Z,100817.06
2022-08-25T02:35:19.269Z,100832.09
2022-08-25T02:37:53.472Z,100835.28
2022-08-25T02:40:22.638Z,100834.50
2022-08-25T02:42:51.447Z,100832.97
2022-08-25T02:45:22.456Z,100829.31
2022-08-25T02:47:53.455Z,100828.50
2022-08-25T02:50:27.370Z,100821.63
2022-08-25T02:52:58.044Z,100822.44
2022-08-25T02:55:28.790Z,100822.81
2022-08-25T02:57:59.203Z,100829.34
2022-08-25T03:00:30.433Z,100832.59
2022-08-25T03:03:00.428Z,100828.50
2022-08-25T03:05:30.523Z,100833.03
2022-08-25T03:08:02.470Z,100823.28
2022-08-25T03:10:32.849Z,100827.38
2022-08-25T03:13:00.721Z,100823.69
2022-08-25T03:15:31.049Z,100821.69
2022-08-25T03:18:02.303Z,100819.69
2022-08-25T03:20:35.651Z,100816.47
2022-08-25T03:23:06.926Z,100821.72
2022-08-25T03:25:52.846Z,100827.41
2022-08-25T03:28:30.014Z,100818.06
2022-08-25T03:31:00.350Z,100821.34
2022-08-25T03:33:32.122Z,100818.06
2022-08-25T03:35:59.679Z,100815.22
2022-08-25T03:38:30.502Z,100812.81
2022-08-25T03:40:58.322Z,100812.00
2022-08-25T03:43:31.882Z,100814.06
2022-08-25T03:46:02.229Z,100812.84
2022-08-25T03:48:36.544Z,100814.06
2022-08-25T03:51:06.584Z,100810.81
2022-08-25T03:53:41.329Z,100814.47
2022-08-25T03:56:12.476Z,100813.66
2022-08-25T03:58:43.107Z,100810.00
2022-08-25T04:01:11.493Z,100805.53
2022-08-25T04:03:39.550Z,100800.28
2022-08-25T04:06:13.475Z,100803.53
2022-08-25T04:08:41.394Z,100800.69
2022-08-25T04:11:11.815Z,100799.84
2022-08-25T04:13:39.846Z,100811.22
2022-08-25T04:16:12.994Z,100802.69
2022-08-25T04:18:50.553Z,100792.56
2022-08-25T04:21:20.488Z,100801.09
2022-08-25T04:23:49.266Z,100799.03
2022-08-25T04:26:28.136Z,100800.28
2022-08-25T04:28:58.723Z,100805.53
2022-08-25T04:31:30.892Z,100802.69
2022-08-25T04:34:14.818Z,100794.63
2022-08-25T04:36:54.477Z,100800.69
2022-08-25T04:39:24.184Z,100800.31
2022-08-25T04:42:06.735Z,100799.09
2022-08-25T04:44:34.746Z,100797.84
2022-08-25T04:47:06.410Z,100809.66
2022-08-25T04:49:40.015Z,100804.78
2022-08-25T04:52:14.458Z,100806.38
2022-08-25T04:54:46.373Z,100810.06
2022-08-25T04:57:14.042Z,100810.91
2022-08-25T04:59:47.360Z,100813.72
2022-08-25T05:02:17.525Z,100805.53
2022-08-25T05:04:50.517Z,100816.09
2022-08-25T05:07:18.657Z,100809.22
2022-08-25T05:09:55.053Z,100812.06
2022-08-25T05:12:22.708Z,100808.81
2022-08-25T05:14:53.658Z,100805.53
2022-08-25T05:17:28.027Z,100813.66
2022-08-25T05:19:58.667Z,100811.22
2022-08-25T05:22:28.725Z,100805.53
2022-08-25T05:24:56.153Z,100814.47
2022-08-25T05:27:23.726Z,100812.41
2022-08-25T05:29:56.904Z,100799.00
2022-08-25T05:32:29.543Z,100793.78
2022-08-25T05:34:59.900Z,100803.47
2022-08-25T05:37:31.238Z,100806.31
2022-08-25T05:40:02.037Z,100801.47
2022-08-25T05:42:29.715Z,100806.31
2022-08-25T05:45:00.160Z,100807.94
2022-08-25T05:47:30.333Z,100811.97
2022-08-25T05:50:01.864Z,100804.63
2022-08-25T05:52:30.039Z,100804.56
2022-08-25T05:55:00.642Z,100807.75
2022-08-25T05:57:29.415Z,100796.38
2022-08-25T06:00:08.446Z,100802.13
2022-08-25T06:02:44.087Z,100799.88
2022-08-25T06:05:21.621Z,100796.63
2022-08-25T06:07:54.647Z,100796.63
2022-08-25T06:10:27.574Z,100787.25
2022-08-25T06:13:00.967Z,100792.09
2022-08-25T06:15:29.107Z,100793.25
2022-08-25T06:18:01.669Z,100792.94
2022-08-25T06:20:30.813Z,100791.50
2022-08-25T06:22:59.246Z,100784.53
2022-08-25T06:25:33.950Z,100790.03
2022-08-25T06:28:08.407Z,100785.06
2022-08-25T06:30:45.979Z,100784.97
2022-08-25T06:33:21.379Z,100780.38
2022-08-25T06:36:04.041Z,100781.19
2022-08-25T06:38:41.588Z,100772.44
2022-08-25T06:41:17.024Z,100772.47
2022-08-25T06:44:04.857Z,100778.03
2022-08-25T06:46:42.543Z,100772.28
2022-08-25T06:49:16.553Z,100783.06
2022-08-25T06:51:44.594Z,100778.63
2022-08-25T06:54:15.823Z,100773.09
2022-08-25T06:56:49.662Z,100778.41
2022-08-25T06:59:32.252Z,100769.13
2022-08-25T07:02:03.179Z,100774.50
2022-08-25T07:04:33.934Z,100774.94
2022-08-25T07:07:08.840Z,100766.34
2022-08-25T07:09:40.817Z,100776.09
2022-08-25T07:12:12.462Z,100770.03
2022-08-25T07:14:58.180Z,100769.53
2022-08-25T07:17:36.745Z,100770.31
2022-08-25T07:20:09.001Z,100763.84
2022-08-25T07:22:44.787Z,100763.00
2022-08-25T07:25:19.697Z,100765.91
2022-08-25T07:28:04.035Z,100764.69
2022-08-25T07:30:37.762Z,100754.69
2022-08-25T07:33:09.408Z,100753.50
2022-08-25T07:35:39.018Z,100754.41
2022-08-25T07:38:12.979Z,100747.97
2022-08-25T07:40:59.034Z,100755.78
2022-08-25T07:43:32.411Z,100760.25
2022-08-25T07:46:07.470Z,100740.06
2022-08-25T07:48:36.900Z,100749.81
2022-08-25T07:51:15.635Z,100755.50
2022-08-25T07:53:52.190Z,100752.25
2022-08-25T07:56:21.201Z,100755.50
2022-08-25T07:58:57.329Z,100750.69
2022-08-25T08:01:26.223Z,100757.59
2022-08-25T08:04:01.570Z,100763.25
2022-08-25T08:06:37.902Z,100766.94
2022-08-25T08:09:09.815Z,100758.84
2022-08-25T08:11:53.672Z,100761.28
2022-08-25T08:14:27.859Z,100758.91
2022-08-25T08:16:58.903Z,100758.91
2022-08-25T08:19:26.981Z,100760.94
2022-08-25T08:21:58.112Z,100756.06
2022-08-25T08:24:44.104Z,100748.78
2022-08-25T08:27:17.496Z,100754.06
2022-08-25T08:29:53.842Z,100752.44
2022-08-25T08:32:32.439Z,100753.25
2022-08-25T08:35:25.885Z,100754.47
2022-08-25T08:38:00.332Z,100758.13
2022-08-25T08:40:41.469Z,100758.53
2022-08-25T08:43:18.966Z,100756.94
2022-08-25T08:45:53.839Z,100756.53
2022-08-25T08:48:43.694Z,100752.88
2022-08-25T08:51:25.406Z,100758.56
2022-08-25T08:54:25.241Z,100745.19
2022-08-25T08:57:17.834Z,100752.50
2022-08-25T08:59:52.048Z,100744.41
2022-08-25T09:02:51.596Z,100739.16
2022-08-25T09:05:26.803Z,100735.97
2022-08-25T09:07:59.826Z,100726.22
2022-08-25T09:10:40.833Z,100725.38
2022-08-25T09:13:16.219Z,100727.00
2022-08-25T09:16:43.135Z,100718.09
2022-08-25T09:19:41.891Z,100721.75
2022-08-25T09:22:35.317Z,100716.88
2022-08-25T09:25:52.559Z,100722.16
2022-08-25T09:28:31.828Z,100716.09
2022-08-25T09:31:20.723Z,100715.25
2022-08-25T09:33:58.992Z,100715.25
2022-08-25T09:36:37.557Z,100718.94
2022-08-25T09:39:14.857Z,100711.63
2022-08-25T09:41:51.456Z,100708.84
2022-08-25T09:44:41.620Z,100707.25
2022-08-25T09:47:29.770Z,100711.28
2022-08-25T09:50:04.612Z,100712.09
2022-08-25T09:52:35.841Z,100699.13
2022-08-25T09:55:13.349Z,100703.94
2022-08-25T09:57:58.538Z,100697.09
2022-08-25T10:00:30.805Z,100687.78
2022-08-25T10:03:24.823Z,100698.31
2022-08-25T10:05:59.094Z,100693.03
2022-08-25T10:08:53.038Z,100682.91
2022-08-25T10:11:40.943Z,100688.94
2022-08-25T10:14:26.756Z,100690.47
2022-08-25T10:17:30.942Z,100690.00
2022-08-25T10:20:30.879Z,100681.03
2022-08-25T10:23:15.256Z,100684.63
2022-08-25T10:25:58.970Z,100680.88
2022-08-25T10:28:55.839Z,100686.94
2022-08-25T10:31:44.518Z,100678.38
2022-08-25T10:34:27.705Z,100683.94
2022-08-25T10:37:13.779Z,100675.78
2022-08-25T10:40:14.311Z,100664.56
2022-08-25T10:43:10.103Z,100669.03
2022-08-25T10:46:04.899Z,100656.19
2022-08-25T10:48:53.486Z,100660.69
2022-08-25T10:51:37.598Z,100662.38
2022-08-25T10:54:24.178Z,100655.88
2022-08-25T10:57:55.894Z,100657.91
2022-08-25T11:00:38.101Z,100661.63
2022-08-25T11:03:44.964Z,100656.41
2022-08-25T11:06:41.665Z,100646.28
2022-08-25T11:09:18.907Z,100647.91
2022-08-25T11:12:32.139Z,100645.53
2022-08-25T11:15:22.060Z,100623.34
2022-08-25T11:18:03.676Z,100634.22
2022-08-25T11:20:47.665Z,100635.09
2022-08-25T11:23:41.367Z,100630.22
2022-08-25T11:26:28.910Z,100622.97
2022-08-25T11:29:17.871Z,100617.28
2022-08-25T11:31:59.402Z,100626.59
2022-08-25T11:34:35.797Z,100612.41
2022-08-25T11:37:28.074Z,100617.69
2022-08-25T11:40:41.105Z,100607.97
2022-08-25T11:43:40.623Z,100603.09
2022-08-25T11:46:36.577Z,100607.22
2022-08-25T11:49:21.761Z,100601.06
2022-08-25T11:52:03.119Z,100601.47
2022-08-25T11:54:42.295Z,100593.41
2022-08-25T11:57:29.432Z,100591.41
2022-08-25T12:00:31.052Z,100595.00
2022-08-25T12:03:04.547Z,100590.53
2022-08-25T12:05:41.756Z,100590.50
2022-08-25T12:08:27.987Z,100601.00
2022-08-25T12:11:11.215Z,100594.56
2022-08-25T12:13:49.286Z,100588.50
2022-08-25T12:16:44.044Z,100587.66
2022-08-25T12:19:30.859Z,100590.94
2022-08-25T12:22:22.725Z,100582.41
2022-08-25T12:25:11.703Z,100584.84
2022-08-25T12:28:09.256Z,100592.44
2022-08-25T12:30:52.814Z,100588.72
2022-08-25T12:33:39.358Z,100592.53
2022-08-25T12:36:29.457Z,100581.22
2022-08-25T12:39:17.433Z,100581.63
2022-08-25T12:42:06.794Z,100569.09
2022-08-25T12:44:48.091Z,100563.13
2022-08-25T12:47:23.500Z,100566.38
2022-08-25T12:50:14.709Z,100570.44
2022-08-25T12:52:49.664Z,100569.66
2022-08-25T12:55:29.179Z,100576.53
2022-08-25T12:58:04.983Z,100571.25
2022-08-25T13:01:04.042Z,100573.31
2022-08-25T13:03:54.234Z,100557.13
2022-08-25T13:06:31.952Z,100568.31
2022-08-25T13:09:33.775Z,100564.19
2022-08-25T13:12:24.864Z,100565.75
2022-08-25T13:14:57.567Z,100571.88
2022-08-25T13:17:35.967Z,100560.06
2022-08-25T13:20:23.252Z,100551.53
2022-08-25T13:23:03.972Z,100553.53
2022-08-25T13:25:38.402Z,100551.88
2022-08-25T13:28:27.184Z,100545.06
2022-08-25T13:31:01.917Z,100554.75
2022-08-25T13:33:32.093Z,100553.09
2022-08-25T13:36:20.214Z,100549.81
2022-08-25T13:38:50.457Z,100544.88
2022-08-25T13:41:29.400Z,100542.00
2022-08-25T13:44:01.848Z,100534.19
2022-08-25T13:46:35.724Z,100534.19
2022-08-25T13:49:15.581Z,100529.06
2022-08-25T13:51:56.546Z,100533.06
2022-08-25T13:54:39.150Z,100530.38
2022-08-25T13:57:18.500Z,100532.38
2022-08-25T13:59:52.195Z,100525.03
2022-08-25T14:02:44.374Z,100524.50
2022-08-25T14:05:32.424Z,100524.22
2022-08-25T14:08:23.389Z,100515.56
2022-08-25T14:11:26.381Z,100516.91
2022-08-25T14:14:23.699Z,100517.66
2022-08-25T14:16:59.611Z,100501.41
2022-08-25T14:19:29.121Z,100522.03
2022-08-25T14:22:03.027Z,100517.22
2022-08-25T14:24:39.289Z,100521.19
2022-08-25T14:27:15.442Z,100514.84
2022-08-25T14:29:52.924Z,100510.44
2022-08-25T14:32:29.062Z,100508.81
2022-08-25T14:35:09.795Z,100508.16
2022-08-25T14:37:44.517Z,100512.84
2022-08-25T14:40:20.368Z,100509.25
2022-08-25T14:42:56.320Z,100505.72
2022-08-25T14:45:35.705Z,100504.44
2022-08-25T14:48:22.014Z,100503.19
2022-08-25T14:51:01.336Z,100498.19
2022-08-25T14:53:41.331Z,100502.97
2022-08-25T14:56:15.516Z,100497.88
2022-08-25T14:58:54.347Z,100506.78
2022-08-25T15:01:30.102Z,100491.00
2022-08-25T15:04:05.296Z,100498.31
2022-08-25T15:06:37.815Z,100496.56
2022-08-25T15:09:21.756Z,100498.28
2022-08-25T15:11:59.934Z,100500.47
2022-08-25T15:14:33.266Z,100491.84
2022-08-25T15:17:09.915Z,100489.97
2022-08-25T15:19:43.273Z,100480.97
2022-08-25T15:22:16.606Z,100485.69
2022-08-25T15:24:58.286Z,100482.75
2022-08-25T15:27:38.131Z,100479.53
2022-08-25T15:30:13.571Z,100474.16
2022-08-25T15:32:52.390Z,100478.03
2022-08-25T15:35:34.379Z,100475.53
2022-08-25T15:38:05.694Z,100482.13
2022-08-25T15:40:38.079Z,100476.84
2022-08-25T15:43:09.831Z,100475.38
2022-08-25T15:45:46.367Z,100476.25
2022-08-25T15:48:22.871Z,100472.63
2022-08-25T15:51:06.092Z,100469.31
2022-08-25T15:53:40.018Z,100475.00
2022-08-25T15:56:35.898Z,100468.53
2022-08-25T15:59:08.595Z,100463.84
2022-08-25T16:01:47.306Z,100458.25
2022-08-25T16:04:18.816Z,100456.66
2022-08-25T16:06:47.192Z,100457.53
2022-08-25T16:09:24.775Z,100449.84
2022-08-25T16:12:02.660Z,100439.28
2022-08-25T16:14:37.887Z,100440.47
2022-08-25T16:17:09.602Z,100435.16
2022-08-25T16:19:44.452Z,100442.03
2022-08-25T16:22:18.406Z,100444.47
2022-08-25T16:24:52.540Z,100425.94
2022-08-25T16:27:38.871Z,100431.06
2022-08-25T16:30:17.563Z,100434.25
2022-08-25T16:32:48.680Z,100430.66
2022-08-25T16:35:34.326Z,100427.88
2022-08-25T16:38:06.827Z,100429.84
2022-08-25T16:40:42.141Z,100426.25
2022-08-25T16:43:10.949Z,100415.41
2022-08-25T16:45:49.353Z,100417.25
2022-08-25T16:48:21.598Z,100414.28
2022-08-25T16:50:52.814Z,100421.44
2022-08-25T16:53:40.266Z,100414.47
2022-08-25T16:56:15.801Z,100411.94
2022-08-25T16:58:52.511Z,100416.72
2022-08-25T17:01:25.294Z,100405.72
2022-08-25T17:03:58.955Z,100407.28
2022-08-25T17:06:36.789Z,100393.41
2022-08-25T17:09:08.268Z,100394.59
2022-08-25T17:11:44.368Z,100389.75
2022-08-25T17:14:18.499Z,100381.69
2022-08-25T17:16:51.341Z,100396.63
2022-08-25T17:19:25.951Z,100399.03
2022-08-25T17:22:00.133Z,100392.13
2022-08-25T17:24:33.419Z,100396.97
2022-08-25T17:27:11.527Z,100396.56
2022-08-25T17:29:40.392Z,100398.16
2022-08-25T17:32:17.849Z,100400.19
2022-08-25T17:34:52.043Z,100398.94
2022-08-25T17:37:25.347Z,100398.16
2022-08-25T17:40:02.557Z,100398.22
2022-08-25T17:42:34.110Z,100407.06
2022-08-25T17:45:06.947Z,100399.41
2022-08-25T17:47:36.986Z,100407.06
2022-08-25T17:50:18.749Z,100403.84
2022-08-25T17:52:49.233Z,100402.63
2022-08-25T17:55:21.702Z,100410.72
2022-08-25T17:57:54.038Z,100407.41
2022-08-25T18:00:23.830Z,100399.75
2022-08-25T18:02:51.408Z,100410.25
2022-08-25T18:05:21.499Z,100424.09
2022-08-25T18:07:57.091Z,100411.47
2022-08-25T18:10:26.211Z,100420.00
2022-08-25T18:13:02.058Z,100424.91
2022-08-25T18:15:30.788Z,100430.50
2022-08-25T18:18:04.561Z,100428.84
2022-08-25T18:20:42.750Z,100411.06
2022-08-25T18:23:14.706Z,100425.13
2022-08-25T18:25:51.593Z,100413.75
2022-08-25T18:28:30.024Z,100424.63
2022-08-25T18:31:01.874Z,100430.69
2022-08-25T18:33:41.673Z,100440.03
2022-08-25T18:36:13.284Z,100436.81
2022-08-25T18:39:04.728Z,100446.56
2022-08-25T18:41:40.473Z,100453.09
2022-08-25T18:44:15.598Z,100447.81
2022-08-25T18:46:48.856Z,100439.75
2022-08-25T18:49:22.999Z,100447.03
2022-08-25T18:51:57.381Z,100454.38
2022-08-25T18:54:32.695Z,100459.66
2022-08-25T18:57:08.804Z,100456.81
2022-08-25T18:59:39.493Z,100461.25
2022-08-25T19:02:10.827Z,100464.53
2022-08-25T19:04:46.410Z,100462.50
2022-08-25T19:07:19.884Z,100467.38
2022-08-25T19:09:52.296Z,100471.03
2022-08-25T19:12:25.889Z,100471.84
2022-08-25T19:15:01.004Z,100475.91
2022-08-25T19:17:37.433Z,100479.56
2022-08-25T19:20:11.270Z,100482.44
2022-08-25T19:22:42.310Z,100483.66
2022-08-25T19:25:21.060Z,100487.72
2022-08-25T19:27:51.928Z,100478.41
2022-08-25T19:30:26.369Z,100485.69
2022-08-25T19:32:56.899Z,100490.13
2022-08-25T19:35:37.690Z,100487.81
2022-08-25T19:38:33.411Z,100488.53
2022-08-25T19:41:10.476Z,100487.72
2022-08-25T19:43:55.457Z,100495.03
2022-08-25T19:46:42.144Z,100498.66
2022-08-25T19:49:17.195Z,100488.22
2022-08-25T19:51:52.931Z,100500.72
2022-08-25T19:54:30.709Z,100498.66
2022-08-25T19:57:07.905Z,100507.22
2022-08-25T19:59:47.212Z,100508.44
2022-08-25T20:02:25.031Z,100510.88
2022-08-25T20:04:55.733Z,100509.69
2022-08-25T20:07:28.704Z,100514.94
2022-08-25T20:10:00.659Z,100516.19
2022-08-25T20:12:32.935Z,100523.94
2022-08-25T20:15:09.458Z,100520.63
2022-08-25T20:17:37.671Z,100517.44
2022-08-25T20:20:19.634Z,100523.13
2022-08-25T20:22:49.497Z,100520.28
2022-08-25T20:25:26.385Z,100522.69
2022-08-25T20:27:58.599Z,100526.31
2022-08-25T20:30:30.585Z,100521.44
2022-08-25T20:33:10.975Z,100520.22
2022-08-25T20:35:50.742Z,100528.75
2022-08-25T20:38:24.633Z,100521.44
2022-08-25T20:41:01.006Z,100512.69
2022-08-25T20:43:34.737Z,100524.28
2022-08-25T20:46:10.697Z,100529.56
2022-08-25T20:48:40.931Z,100518.66
2022-08-25T20:51:18.752Z,100531.16
2022-08-25T20:53:51.853Z,100531.94
2022-08-25T20:56:30.594Z,100540.50
2022-08-25T20:59:04.092Z,100538.09
2022-08-25T21:01:43.791Z,100537.63
2022-08-25T21:04:15.066Z,100544.59
2022-08-25T21:06:44.513Z,100532.47
2022-08-25T21:09:20.191Z,100539.34
2022-08-25T21:11:55.311Z,100543.41
2022-08-25T21:14:28.420Z,100547.03
2022-08-25T21:16:58.887Z,100548.28
2022-08-25T21:19:31.619Z,100541.00
2022-08-25T21:22:10.850Z,100539.38
2022-08-25T21:24:39.176Z,100553.19
2022-08-25T21:27:09.358Z,100545.91
2022-08-25T21:29:44.358Z,100544.25
2022-08-25T21:32:15.334Z,100544.25
2022-08-25T21:34:45.861Z,100554.03
2022-08-25T21:37:17.927Z,100545.91
2022-08-25T21:39:45.705Z,100552.00
2022-08-25T21:42:18.600Z,100560.97
2022-08-25T21:44:46.000Z,100561.84
2022-08-25T21:47:20.887Z,100561.06
2022-08-25T21:49:57.606Z,100572.72
2022-08-25T21:52:30.637Z,100564.97
2022-08-25T21:55:02.270Z,100564.19
2022-08-25T21:57:32.825Z,100563.03
2022-08-25T22:00:08.154Z,100553.72
2022-08-25T22:02:45.947Z,100567.81
2022-08-25T22:05:17.054Z,100570.25
2022-08-25T22:07:52.230Z,100558.88
2022-08-25T22:10:23.774Z,100562.09
2022-08-25T22:12:56.330Z,100560.41
2022-08-25T22:15:27.545Z,100559.13
2022-08-25T22:18:03.010Z,100560.00
2022-08-25T22:20:34.479Z,100570.88
2022-08-25T22:23:20.246Z,100577.38
2022-08-25T22:26:00.083Z,100579.78
2022-08-25T22:28:34.102Z,100583.00
2022-08-25T22:31:09.263Z,100582.22
2022-08-25T22:33:46.392Z,100584.63
2022-08-25T22:36:35.779Z,100577.31
2022-08-25T22:39:17.394Z,100583.38
2022-08-25T22:41:53.940Z,100582.16
2022-08-25T22:44:23.462Z,100585.41
2022-08-25T22:46:59.403Z,100580.53
2022-08-25T22:49:35.511Z,100573.16
2022-08-25T22:52:12.892Z,100585.00
2022-08-25T22:54:42.802Z,100574.81
2022-08-25T22:57:16.806Z,100570.75
2022-08-25T22:59:56.613Z,100565.06
2022-08-25T23:02:30.590Z,100568.34
2022-08-25T23:05:00.890Z,100567.53
2022-08-25T23:07:37.709Z,100564.69
2022-08-25T23:10:12.985Z,100564.31
2022-08-25T23:12:44.193Z,100559.84
2022-08-25T23:15:16.989Z,100557.09
2022-08-25T23:17:50.605Z,100548.59
2022-08-25T23:20:56.447Z,100560.34
2022-08-25T23:23:29.587Z,100564.38
2022-08-25T23:26:01.972Z,100555.47
2022-08-25T23:28:39.174Z,100553.06
2022-08-25T23:31:11.859Z,100553.50
2022-08-25T23:33:45.887Z,100534.13
2022-08-25T23:36:17.501Z,100542.91
2022-08-25T23:38:54.399Z,100547.00
2022-08-25T23:41:29.951Z,100545.91
2022-08-25T23:44:05.584Z,100554.38
2022-08-25T23:46:44.906Z,100536.09
2022-08-25T23:49:18.442Z,100542.19
2022-08-25T23:51:52.761Z,100533.69
2022-08-25T23:54:29.029Z,100529.16
2022-08-25T23:57:00.485Z,100524.00
2022-08-25T23:59:42.080Z,100536.09
